createdAt,value
2022-10-25T00:02:21.626Z,14.50
2022-10-25T00:05:12.593Z,14.40
2022-10-25T00:08:00.274Z,14.40
2022-10-25T00:10:48.019Z,14.40
2022-10-25T00:13:35.887Z,14.40
2022-10-25T00:16:24.283Z,14.40
2022-10-25T00:19:12.177Z,14.40
2022-10-25T00:22:01.267Z,14.40
2022-10-25T00:24:48.967Z,14.40
2022-10-25T00:27:37.092Z,14.40
2022-10-25T00:30:24.866Z,14.40
2022-10-25T00:33:12.570Z,14.40
2022-10-25T00:36:04.902Z,14.50
2022-10-25T00:38:54.234Z,14.40
2022-10-25T00:41:42.058Z,14.40
2022-10-25T00:44:47.867Z,14.40
2022-10-25T00:47:42.034Z,14.40
2022-10-25T00:50:35.895Z,14.40
2022-10-25T00:53:25.918Z,14.40
2022-10-25T00:56:17.758Z,14.40
2022-10-25T00:59:07.921Z,14.40
2022-10-25T01:01:56.758Z,14.30
2022-10-25T01:04:44.861Z,14.30
2022-10-25T01:07:32.697Z,14.30
2022-10-25T01:10:20.682Z,14.30
2022-10-25T01:13:10.098Z,14.20
2022-10-25T01:16:03.450Z,14.20
2022-10-25T01:18:56.683Z,14.20
2022-10-25T01:21:46.381Z,14.20
2022-10-25T01:24:41.826Z,14.20
2022-10-25T01:27:47.488Z,14.10
2022-10-25T01:31:00.800Z,14.10
2022-10-25T01:33:52.480Z,14.10
2022-10-25T01:36:43.195Z,14.10
2022-10-25T01:39:32.558Z,14.10
2022-10-25T01:42:23.724Z,14.10
2022-10-25T01:45:14.319Z,14.10
2022-10-25T01:48:06.016Z,14.10
2022-10-25T01:50:53.720Z,14.10
2022-10-25T01:53:45.371Z,14.10
2022-10-25T01:56:35.127Z,14.10
2022-10-25T01:59:33.753Z,14.10
2022-10-25T02:02:25.099Z,14.10
2022-10-25T02:05:17.625Z,14.10
2022-10-25T02:08:06.170Z,14.10
2022-10-25T02:10:58.370Z,14.10
2022-10-25T02:13:53.238Z,14.10
2022-10-25T02:16:43.783Z,14.10
2022-10-25T02:19:33.846Z,14.00
2022-10-25T02:22:24.755Z,14.00
2022-10-25T02:25:13.560Z,14.00
2022-10-25T02:28:02.673Z,14.00
2022-10-25T02:30:51.053Z,14.00
2022-10-25T02:33:38.948Z,14.10
2022-10-25T02:36:26.638Z,14.10
2022-10-25T02:39:16.128Z,14.10
2022-10-25T02:42:04.486Z,14.10
2022-10-25T02:44:52.190Z,14.00
2022-10-25T02:47:39.904Z,14.00
2022-10-25T02:50:27.605Z,14.00
2022-10-25T02:53:15.293Z,14.00
2022-10-25T02:56:05.801Z,14.00
2022-10-25T02:58:56.452Z,14.00
2022-10-25T03:01:44.162Z,13.90
2022-10-25T03:04:32.170Z,13.90
2022-10-25T03:07:19.860Z,13.90
2022-10-25T03:10:08.288Z,13.90
2022-10-25T03:12:57.291Z,13.90
2022-10-25T03:15:45.086Z,14.00
2022-10-25T03:18:32.760Z,13.90
2022-10-25T03:21:20.520Z,13.90
2022-10-25T03:24:08.378Z,13.80
2022-10-25T03:26:56.127Z,13.80
2022-10-25T03:29:45.274Z,13.80
2022-10-25T03:32:32.976Z,13.80
2022-10-25T03:35:20.732Z,13.80
2022-10-25T03:38:08.444Z,13.80
2022-10-25T03:40:56.151Z,13.80
2022-10-25T03:43:43.915Z,13.70
2022-10-25T03:46:32.999Z,13.70
2022-10-25T03:49:20.802Z,13.70
2022-10-25T03:52:08.524Z,13.70
2022-10-25T03:54:56.239Z,13.70
2022-10-25T03:57:44.126Z,13.70
2022-10-25T04:00:32.131Z,13.70
2022-10-25T04:03:22.972Z,13.60
2022-10-25T04:06:10.821Z,13.60
2022-10-25T04:08:58.545Z,13.60
2022-10-25T04:11:46.271Z,13.60
2022-10-25T04:14:33.983Z,13.60
2022-10-25T04:17:21.714Z,13.50
2022-10-25T04:20:11.469Z,13.50
2022-10-25T04:22:59.208Z,13.50
2022-10-25T04:25:46.919Z,13.50
2022-10-25T04:28:34.604Z,13.50
2022-10-25T04:31:23.269Z,13.50
2022-10-25T04:34:11.143Z,13.60
2022-10-25T04:37:00.316Z,13.60
2022-10-25T04:39:48.024Z,13.60
2022-10-25T04:42:35.812Z,13.60
2022-10-25T04:45:23.546Z,13.60
2022-10-25T04:48:11.241Z,13.50
2022-10-25T04:51:00.051Z,13.50
2022-10-25T04:53:49.115Z,13.50
2022-10-25T04:56:36.840Z,13.50
2022-10-25T04:59:24.726Z,13.60
2022-10-25T05:02:12.526Z,13.60
2022-10-25T05:05:00.259Z,13.60
2022-10-25T05:07:47.926Z,13.50
2022-10-25T05:10:36.991Z,13.50
2022-10-25T05:13:24.879Z,13.50
2022-10-25T05:16:14.532Z,13.40
2022-10-25T05:19:02.310Z,13.40
2022-10-25T05:21:50.018Z,13.40
2022-10-25T05:24:37.721Z,13.40
2022-10-25T05:27:26.744Z,13.30
2022-10-25T05:30:14.798Z,13.30
2022-10-25T05:33:04.889Z,13.30
2022-10-25T05:35:52.767Z,13.40
2022-10-25T05:38:40.474Z,13.30
2022-10-25T05:41:30.710Z,13.40
2022-10-25T05:44:22.471Z,13.40
2022-10-25T05:47:10.158Z,13.40
2022-10-25T05:49:57.851Z,13.40
2022-10-25T05:52:45.964Z,13.40
2022-10-25T05:55:34.379Z,13.40
2022-10-25T05:58:22.063Z,13.40
2022-10-25T06:01:12.230Z,13.40
2022-10-25T06:04:00.102Z,13.40
2022-10-25T06:06:48.101Z,13.40
2022-10-25T06:09:35.840Z,13.40
2022-10-25T06:12:26.566Z,13.40
2022-10-25T06:15:14.328Z,13.40
2022-10-25T06:18:03.360Z,13.40
2022-10-25T06:20:51.239Z,13.40
2022-10-25T06:23:39.102Z,13.40
2022-10-25T06:26:27.456Z,13.40
2022-10-25T06:29:15.264Z,13.40
2022-10-25T06:32:03.699Z,13.40
2022-10-25T06:34:52.771Z,13.40
2022-10-25T06:37:40.484Z,13.40
2022-10-25T06:40:28.298Z,13.40
2022-10-25T06:43:16.000Z,13.40
2022-10-25T06:46:05.780Z,13.40
2022-10-25T06:48:54.262Z,13.40
2022-10-25T06:51:43.343Z,13.40
2022-10-25T06:54:31.090Z,13.40
2022-10-25T06:57:18.776Z,13.40
2022-10-25T07:00:07.168Z,13.40
2022-10-25T07:02:55.181Z,13.40
2022-10-25T07:05:42.919Z,13.40
2022-10-25T07:08:31.962Z,13.40
2022-10-25T07:11:20.287Z,13.40
2022-10-25T07:14:09.292Z,13.40
2022-10-25T07:16:58.042Z,13.40
2022-10-25T07:19:45.835Z,13.40
2022-10-25T07:22:34.020Z,13.50
2022-10-25T07:25:23.162Z,13.50
2022-10-25T07:28:12.184Z,13.50
2022-10-25T07:30:59.892Z,13.50
2022-10-25T07:33:47.685Z,13.40
2022-10-25T07:36:35.457Z,13.50
2022-10-25T07:39:23.170Z,13.50
2022-10-25T07:42:12.255Z,13.40
2022-10-25T07:45:00.036Z,13.40
2022-10-25T07:47:47.976Z,13.40
2022-10-25T07:50:35.974Z,13.50
2022-10-25T07:53:23.722Z,13.50
2022-10-25T07:56:16.084Z,13.60
2022-10-25T07:59:08.087Z,13.70
2022-10-25T08:01:55.802Z,13.70
2022-10-25T08:04:44.141Z,13.70
2022-10-25T08:07:31.832Z,13.70
2022-10-25T08:10:20.601Z,13.70
2022-10-25T08:13:08.352Z,13.80
2022-10-25T08:15:57.756Z,13.90
2022-10-25T08:18:45.497Z,14.00
2022-10-25T08:21:33.302Z,14.00
2022-10-25T08:24:21.092Z,14.10
2022-10-25T08:27:08.874Z,14.10
2022-10-25T08:29:56.608Z,14.10
2022-10-25T08:32:45.773Z,14.10
2022-10-25T08:35:33.539Z,14.10
2022-10-25T08:38:21.258Z,14.10
2022-10-25T08:41:11.899Z,14.20
2022-10-25T08:44:08.816Z,14.20
2022-10-25T08:46:58.270Z,14.20
2022-10-25T08:49:52.618Z,14.30
2022-10-25T08:52:41.838Z,14.40
2022-10-25T08:55:32.883Z,14.40
2022-10-25T08:58:23.755Z,14.40
2022-10-25T09:01:14.043Z,14.40
2022-10-25T09:04:01.856Z,14.50
2022-10-25T09:06:53.602Z,14.60
2022-10-25T09:09:45.885Z,14.70
2022-10-25T09:12:35.695Z,14.80
2022-10-25T09:15:27.255Z,14.90
2022-10-25T09:18:16.205Z,15.00
2022-10-25T09:21:13.418Z,15.10
2022-10-25T09:24:07.067Z,15.20
2022-10-25T09:27:00.673Z,15.20
2022-10-25T09:29:50.791Z,15.20
2022-10-25T09:32:39.773Z,15.40
2022-10-25T09:35:32.010Z,15.40
2022-10-25T09:38:21.572Z,15.50
2022-10-25T09:41:12.951Z,15.50
2022-10-25T09:44:02.844Z,15.50
2022-10-25T09:46:53.759Z,15.50
2022-10-25T09:49:44.704Z,15.50
2022-10-25T09:52:35.992Z,15.50
2022-10-25T09:55:33.491Z,15.50
2022-10-25T09:58:23.760Z,15.50
2022-10-25T10:01:14.656Z,15.50
2022-10-25T10:04:07.289Z,15.60
2022-10-25T10:06:57.628Z,15.60
2022-10-25T10:09:46.297Z,15.60
2022-10-25T10:12:37.555Z,15.60
2022-10-25T10:15:27.411Z,15.60
2022-10-25T10:18:22.602Z,15.60
2022-10-25T10:21:14.527Z,15.60
2022-10-25T10:24:03.779Z,15.60
2022-10-25T10:26:55.389Z,15.60
2022-10-25T10:29:51.313Z,15.60
2022-10-25T10:35:34.747Z,15.80
2022-10-25T10:38:23.954Z,15.80
2022-10-25T10:41:15.716Z,15.90
2022-10-25T10:44:12.555Z,15.90
2022-10-25T10:47:00.580Z,16.00
2022-10-25T10:49:49.634Z,16.00
2022-10-25T10:52:40.087Z,16.10
2022-10-25T10:55:29.453Z,16.10
2022-10-25T10:58:18.331Z,16.00
2022-10-25T11:01:07.125Z,16.00
2022-10-25T11:04:00.007Z,16.00
2022-10-25T11:06:49.743Z,16.00
2022-10-25T11:09:37.492Z,15.90
2022-10-25T11:12:25.273Z,15.90
2022-10-25T11:15:13.660Z,15.90
2022-10-25T11:18:04.333Z,15.90
2022-10-25T11:20:54.352Z,15.80
2022-10-25T11:23:49.187Z,15.70
2022-10-25T11:26:46.116Z,15.60
2022-10-25T11:29:54.926Z,15.60
2022-10-25T11:32:52.045Z,15.70
2022-10-25T11:35:45.825Z,15.70
2022-10-25T11:38:41.339Z,15.80
2022-10-25T11:41:35.287Z,15.80
2022-10-25T11:44:45.781Z,15.90
2022-10-25T11:47:43.077Z,15.90
2022-10-25T11:50:35.432Z,16.00
2022-10-25T11:53:31.871Z,16.00
2022-10-25T11:56:22.896Z,16.10
2022-10-25T11:59:17.195Z,16.10
2022-10-25T12:02:13.215Z,16.10
2022-10-25T12:05:07.770Z,16.10
2022-10-25T12:08:00.791Z,16.10
2022-10-25T12:10:50.428Z,16.00
2022-10-25T12:13:40.746Z,16.00
2022-10-25T12:16:30.383Z,16.10
2022-10-25T12:19:21.114Z,16.20
2022-10-25T12:22:09.854Z,16.20
2022-10-25T12:25:00.027Z,16.20
2022-10-25T12:27:53.165Z,16.20
2022-10-25T12:30:45.142Z,16.30
2022-10-25T12:33:37.000Z,16.30
2022-10-25T12:36:28.831Z,16.30
2022-10-25T12:39:17.952Z,16.30
2022-10-25T12:42:06.759Z,16.30
2022-10-25T12:45:04.118Z,16.30
2022-10-25T12:47:58.573Z,16.30
2022-10-25T12:51:03.201Z,16.40
2022-10-25T12:54:00.423Z,16.50
2022-10-25T12:56:55.378Z,16.50
2022-10-25T12:59:49.266Z,16.50
2022-10-25T13:03:01.097Z,16.50
2022-10-25T13:05:59.484Z,16.50
2022-10-25T13:08:48.939Z,16.40
2022-10-25T13:11:38.776Z,16.40
2022-10-25T13:14:27.504Z,16.40
2022-10-25T13:17:30.111Z,16.50
2022-10-25T13:20:36.766Z,16.40
2022-10-25T13:23:59.537Z,16.40
2022-10-25T13:27:18.720Z,16.40
2022-10-25T13:30:27.558Z,16.50
2022-10-25T13:33:27.872Z,16.60
2022-10-25T13:36:15.636Z,16.60
2022-10-25T13:39:04.891Z,16.60
2022-10-25T13:41:53.586Z,16.60
2022-10-25T13:44:51.564Z,16.50
2022-10-25T13:47:41.363Z,16.50
2022-10-25T13:50:31.201Z,16.50
2022-10-25T13:53:21.979Z,16.50
2022-10-25T13:56:13.414Z,16.60
2022-10-25T13:59:01.307Z,16.80
2022-10-25T14:01:53.180Z,17.00
2022-10-25T14:04:42.316Z,16.90
2022-10-25T14:07:46.831Z,16.90
2022-10-25T14:10:36.192Z,17.00
2022-10-25T14:13:26.794Z,17.00
2022-10-25T14:16:18.885Z,17.00
2022-10-25T14:19:10.956Z,17.10
2022-10-25T14:22:00.604Z,17.00
2022-10-25T14:24:50.195Z,17.20
2022-10-25T14:27:38.234Z,17.30
2022-10-25T14:30:27.067Z,17.30
2022-10-25T14:33:22.676Z,17.30
2022-10-25T14:36:11.707Z,17.10
2022-10-25T14:39:01.684Z,17.00
2022-10-25T14:41:53.434Z,17.00
2022-10-25T14:44:45.602Z,16.90
2022-10-25T14:47:34.302Z,16.90
2022-10-25T14:50:23.321Z,17.00
2022-10-25T14:53:15.755Z,16.90
2022-10-25T14:56:05.836Z,17.00
2022-10-25T14:58:54.097Z,16.90
2022-10-25T15:01:42.176Z,16.80
2022-10-25T15:04:31.505Z,16.80
2022-10-25T15:07:20.834Z,16.70
2022-10-25T15:10:29.027Z,16.60
2022-10-25T15:13:22.111Z,16.60
2022-10-25T15:16:27.131Z,16.60
2022-10-25T15:19:20.422Z,16.50
2022-10-25T15:22:10.552Z,16.50
2022-10-25T15:24:58.630Z,16.50
2022-10-25T15:27:46.336Z,16.50
2022-10-25T15:30:36.487Z,16.50
2022-10-25T15:33:26.449Z,16.50
2022-10-25T15:36:20.495Z,16.60
2022-10-25T15:39:18.992Z,16.60
2022-10-25T15:42:08.435Z,16.60
2022-10-25T15:44:58.359Z,16.60
2022-10-25T15:47:49.942Z,16.50
2022-10-25T15:50:40.119Z,16.50
2022-10-25T15:53:27.814Z,16.50
2022-10-25T15:56:17.209Z,16.40
2022-10-25T15:59:04.941Z,16.30
2022-10-25T16:01:55.035Z,16.20
2022-10-25T16:04:44.240Z,16.10
2022-10-25T16:07:31.939Z,16.10
2022-10-25T16:10:20.892Z,15.90
2022-10-25T16:13:12.162Z,15.80
2022-10-25T16:16:04.383Z,15.80
2022-10-25T16:18:54.500Z,15.80
2022-10-25T16:21:44.215Z,15.70
2022-10-25T16:24:31.974Z,15.60
2022-10-25T16:27:20.221Z,15.60
2022-10-25T16:30:13.182Z,15.50
2022-10-25T16:33:00.997Z,15.50
2022-10-25T16:35:48.674Z,15.50
2022-10-25T16:38:37.705Z,15.50
2022-10-25T16:41:26.299Z,15.40
2022-10-25T16:44:15.159Z,15.40
2022-10-25T16:47:10.855Z,15.30
2022-10-25T16:49:59.257Z,15.30
2022-10-25T16:52:47.159Z,15.30
2022-10-25T16:55:36.774Z,15.30
2022-10-25T16:58:24.568Z,15.20
2022-10-25T17:01:19.856Z,15.20
2022-10-25T17:04:07.976Z,15.20
2022-10-25T17:06:55.662Z,15.10
2022-10-25T17:09:43.462Z,15.10
2022-10-25T17:12:32.504Z,15.00
2022-10-25T17:15:21.081Z,14.90
2022-10-25T17:18:11.696Z,14.80
2022-10-25T17:21:06.198Z,14.80
2022-10-25T17:23:53.901Z,14.80
2022-10-25T17:26:41.600Z,14.80
2022-10-25T17:29:30.651Z,14.70
2022-10-25T17:32:18.339Z,14.70
2022-10-25T17:35:06.560Z,14.70
2022-10-25T17:37:54.446Z,14.70
2022-10-25T17:40:43.313Z,14.60
2022-10-25T17:43:31.055Z,14.70
2022-10-25T17:46:21.027Z,14.70
2022-10-25T17:49:08.737Z,14.60
2022-10-25T17:51:56.585Z,14.60
2022-10-25T17:54:45.098Z,14.60
2022-10-25T17:57:32.803Z,14.60
2022-10-25T18:00:20.554Z,14.60
2022-10-25T18:03:09.647Z,14.50
2022-10-25T18:06:00.425Z,14.50
2022-10-25T18:08:51.309Z,14.50
2022-10-25T18:11:39.031Z,14.40
2022-10-25T18:14:26.769Z,14.40
2022-10-25T18:17:14.559Z,14.30
2022-10-25T18:20:03.742Z,14.30
2022-10-25T18:22:51.473Z,14.30
2022-10-25T18:25:39.232Z,14.20
2022-10-25T18:28:31.586Z,14.20
2022-10-25T18:31:20.471Z,14.20
2022-10-25T18:34:08.507Z,14.10
2022-10-25T18:36:57.704Z,14.10
2022-10-25T18:39:47.364Z,14.10
2022-10-25T18:42:35.565Z,14.10
2022-10-25T18:45:23.777Z,14.00
2022-10-25T18:48:11.763Z,14.00
2022-10-25T18:51:03.523Z,14.00
2022-10-25T18:53:54.910Z,13.90
2022-10-25T18:56:42.631Z,13.90
2022-10-25T18:59:31.628Z,13.90
2022-10-25T19:02:19.463Z,13.80
2022-10-25T19:05:10.877Z,13.70
2022-10-25T19:07:58.579Z,13.70
2022-10-25T19:10:50.033Z,13.70
2022-10-25T19:13:38.048Z,13.70
2022-10-25T19:16:28.171Z,13.70
2022-10-25T19:19:16.129Z,13.70
2022-10-25T19:22:05.741Z,13.60
2022-10-25T19:24:54.496Z,13.60
2022-10-25T19:27:43.620Z,13.50
2022-10-25T19:30:35.461Z,13.50
2022-10-25T19:33:26.745Z,13.50
2022-10-25T19:36:18.535Z,13.50
2022-10-25T19:39:06.305Z,13.40
2022-10-25T19:41:54.056Z,13.40
2022-10-25T19:44:45.500Z,13.40
2022-10-25T19:47:34.688Z,13.40
2022-10-25T19:50:23.808Z,13.40
2022-10-25T19:53:14.698Z,13.30
2022-10-25T19:56:02.886Z,13.40
2022-10-25T19:58:51.194Z,13.30
2022-10-25T20:01:42.534Z,13.40
2022-10-25T20:04:30.466Z,13.40
2022-10-25T20:07:18.437Z,13.30
2022-10-25T20:10:06.887Z,13.40
2022-10-25T20:12:55.141Z,13.30
2022-10-25T20:15:47.907Z,13.40
2022-10-25T20:18:37.716Z,13.30
2022-10-25T20:21:27.816Z,13.20
2022-10-25T20:24:15.876Z,13.20
2022-10-25T20:27:03.570Z,13.20
2022-10-25T20:29:52.365Z,13.20
2022-10-25T20:32:40.290Z,13.10
2022-10-25T20:35:29.420Z,13.10
2022-10-25T20:38:17.147Z,13.00
2022-10-25T20:41:06.464Z,12.90
2022-10-25T20:43:54.801Z,12.90
2022-10-25T20:46:42.581Z,13.00
2022-10-25T20:49:30.295Z,13.00
2022-10-25T20:52:19.339Z,12.90
2022-10-25T20:55:07.340Z,13.00
2022-10-25T20:57:58.059Z,12.90
2022-10-25T21:00:46.520Z,12.90
2022-10-25T21:03:34.266Z,12.90
2022-10-25T21:06:22.058Z,12.90
2022-10-25T21:09:12.153Z,12.80
2022-10-25T21:11:59.871Z,12.80
2022-10-25T21:14:47.599Z,12.80
2022-10-25T21:17:35.374Z,12.90
2022-10-25T21:20:23.149Z,12.90
2022-10-25T21:23:11.711Z,12.90
2022-10-25T21:26:01.211Z,12.90
2022-10-25T21:28:48.923Z,12.80
2022-10-25T21:31:36.630Z,12.90
2022-10-25T21:34:26.850Z,12.90
2022-10-25T21:37:14.613Z,12.80
2022-10-25T21:40:02.427Z,12.80
2022-10-25T21:42:51.474Z,12.80
2022-10-25T21:45:40.890Z,12.80
2022-10-25T21:48:28.583Z,12.80
2022-10-25T21:51:16.417Z,12.80
2022-10-25T21:54:04.297Z,12.70
2022-10-25T21:56:53.371Z,12.70
2022-10-25T21:59:42.411Z,12.70
2022-10-25T22:02:30.238Z,12.70
2022-10-25T22:05:18.154Z,12.60
2022-10-25T22:08:05.943Z,12.60
2022-10-25T22:13:54.522Z,12.60
2022-10-25T22:16:43.634Z,12.70
2022-10-25T22:19:31.374Z,12.70
2022-10-25T22:22:19.084Z,12.60
2022-10-25T22:25:06.952Z,12.60
2022-10-25T22:27:54.667Z,12.60
2022-10-25T22:30:42.405Z,12.60
2022-10-25T22:33:31.672Z,12.60
2022-10-25T22:36:20.374Z,12.60
2022-10-25T22:39:09.048Z,12.50
2022-10-25T22:41:56.736Z,12.50
2022-10-25T22:44:44.458Z,12.50
2022-10-25T22:47:32.180Z,12.50
2022-10-25T22:50:21.250Z,12.50
2022-10-25T22:53:08.980Z,12.50
2022-10-25T22:55:57.251Z,12.40
2022-10-25T22:58:48.526Z,12.30
2022-10-25T23:01:37.603Z,12.30
2022-10-25T23:04:25.506Z,12.20
2022-10-25T23:07:14.634Z,12.30
2022-10-25T23:10:02.866Z,12.30
2022-10-25T23:12:50.932Z,12.20
2022-10-25T23:15:38.747Z,12.20
2022-10-25T23:18:26.936Z,12.20
2022-10-25T23:21:16.395Z,12.20
2022-10-25T23:24:05.875Z,12.20
2022-10-25T23:26:53.581Z,12.20
2022-10-25T23:29:41.284Z,12.10
2022-10-25T23:32:28.954Z,12.10
2022-10-25T23:35:16.766Z,12.10
2022-10-25T23:38:04.693Z,12.10
2022-10-25T23:40:53.760Z,12.10
2022-10-25T23:43:41.474Z,12.00
2022-10-25T23:46:29.204Z,12.00
2022-10-25T23:49:16.915Z,11.90
2022-10-25T23:52:04.711Z,11.90
2022-10-25T23:54:52.567Z,11.90
2022-10-25T23:57:41.623Z,11.90
